Latest Weather Observations for Gladstone Airport

IDQ60801

Issued at 3:32 pm EST Friday 6 May 2016 (issued every 30 minutes, with the page automatically refreshed every 10 minutes)

About weather observations | Map of weather stations | Latest weather observations for QLD | Other Formats
Station Details ID: 039326 Name: GLADSTONE AIRPORT Lat: -23.87 Lon: 151.22 Height: 16.6 m
Data from the previous 72 hours. | See also: Recent months at Gladstone Airport
Date/Time
EST
Temp
°C
App
Temp
°C
Dew
Point
Rel
Hum
%
Delta-T
°C
Wind Press
QNH
hPa
Press
MSL
hPa
Rain
since 9 am
mm
Dir
 
Spd
km/h
Gust
km/h
Spd
kts
Gust
kts
06/03:30pm 25.1 25.4 18.8 68 4.0 ENE 15 20 8 11 1015.9 1015.9 0.0
06/03:00pm 24.8 25.1 18.0 66 4.3 NE 13 19 7 10 1016.1 1016.1 0.0
06/02:30pm 25.2 25.8 17.7 63 4.7 ENE 11 15 6 8 1016.3 1016.3 0.0
06/02:00pm 25.0 25.6 17.7 64 4.6 ENE 11 17 6 9 1016.1 1016.1 0.0
06/01:30pm 25.0 25.7 18.0 65 4.4 NE 11 15 6 8 1016.2 1016.2 0.0
06/01:00pm 25.3 25.8 17.5 62 4.9 E 11 19 6 10 1016.6 1016.6 0.0
06/12:30pm 25.0 25.9 17.5 63 4.7 E 9 15 5 8 1017.1 1017.1 0.0
06/12:00pm 25.2 25.0 16.6 59 5.3 ESE 13 19 7 10 1017.4 1017.4 0.0
06/11:30am 25.3 25.3 17.2 61 5.0 ESE 13 17 7 9 1017.8 1017.8 0.0
06/11:00am 25.5 26.0 17.4 61 5.0 SE 11 19 6 10 1018.4 1018.4 0.0
06/10:30am 25.1 24.4 17.3 62 4.9 ESE 17 26 9 14 1018.4 1018.4 0.0
06/10:00am 25.3 25.6 18.0 64 4.6 E 13 17 7 9 1018.9 1018.9 0.0
06/09:30am 25.3 26.2 18.5 66 4.3 ESE 11 17 6 9 1019.2 1019.2 0.0
06/09:00am 23.6 24.9 18.5 73 3.2 SSW 9 13 5 7 1019.2 1019.2 0.0
06/08:30am 22.3 23.5 18.3 78 2.5 SSW 9 13 5 7 1019.1 1019.1 0.0
06/08:00am 21.0 22.1 18.0 83 1.9 SSW 9 13 5 7 1018.8 1018.8 0.0
06/07:30am 19.5 20.2 17.1 86 1.5 SW 9 13 5 7 1018.5 1018.5 0.0
06/07:00am 18.6 19.2 16.9 90 1.0 SW 9 13 5 7 1018.0 1018.0 0.0
06/06:30am 17.8 18.1 16.1 90 1.0 SSW 9 11 5 6 1017.6 1017.6 0.0
06/06:00am 18.0 18.8 16.3 90 1.0 SSW 7 9 4 5 1017.2 1017.2 0.0
06/05:30am 18.2 18.7 16.5 90 1.0 SSW 9 11 5 6 1017.1 1017.1 0.0
06/05:00am 18.2 18.7 16.5 90 1.0 SSW 9 11 5 6 1016.8 1016.8 0.0
06/04:30am 18.4 19.0 16.7 90 1.0 SSW 9 11 5 6 1016.8 1016.8 0.0
06/04:00am 18.7 19.3 16.9 89 1.1 SSW 9 13 5 7 1016.8 1016.8 0.0
06/03:30am 18.9 19.5 16.9 88 1.2 SSW 9 11 5 6 1016.9 1016.9 0.0
06/03:00am 19.1 19.7 16.9 87 1.3 SSW 9 11 5 6 1016.7 1016.7 0.0
06/02:30am 19.6 20.7 17.0 85 1.6 SSW 7 9 4 5 1017.0 1017.0 0.0
06/02:00am 19.9 20.7 17.3 85 1.6 S 9 11 5 6 1017.0 1017.0 0.0
06/01:30am 20.0 21.2 17.4 85 1.6 S 7 9 4 5 1017.3 1017.3 0.0
06/01:00am 19.9 21.1 17.3 85 1.6 SSW 7 9 4 5 1017.6 1017.6 0.0
06/12:30am 20.1 21.5 17.3 84 1.7 S 6 7 3 4 1018.0 1018.0 0.0
06/12:00am 20.4 21.8 17.4 83 1.8 S 6 7 3 4 1018.1 1018.1 0.0
 
Date/Time
EST
Temp
°C
App
Temp
°C
Dew
Point
Rel
Hum
%
Delta-T
°C
Wind Press
QNH
hPa
Press
MSL
hPa
Rain
since 9 am
mm
Dir
 
Spd
km/h
Gust
km/h
Spd
kts
Gust
kts
05/11:30pm 21.0 22.5 17.6 81 2.1 S 6 7 3 4 1018.2 1018.2 0.0
05/11:00pm 21.2 22.6 17.8 81 2.1 SSE 7 9 4 5 1018.3 1018.3 0.0
05/10:30pm 21.3 23.0 18.1 82 2.0 SSE 6 9 3 5 1018.4 1018.4 0.0
05/10:00pm 21.6 23.4 18.2 81 2.1 SSE 6 9 3 5 1018.5 1018.5 0.0
05/09:30pm 22.3 23.7 18.7 80 2.3 SE 9 11 5 6 1018.4 1018.4 0.0
05/09:00pm 22.9 24.6 18.4 76 2.8 SE 7 9 4 5 1018.4 1018.4 0.0
05/08:30pm 23.0 23.6 18.7 77 2.7 ESE 13 17 7 9 1018.2 1018.2 0.0
05/08:00pm 23.2 23.8 18.5 75 3.0 ESE 13 17 7 9 1018.2 1018.2 0.0
05/07:30pm 23.4 24.0 18.7 75 3.0 ESE 13 15 7 8 1018.2 1018.2 0.0
05/07:00pm 23.5 24.1 18.6 74 3.1 E 13 17 7 9 1017.8 1017.8 0.0
05/06:30pm 23.7 23.8 18.4 72 3.3 E 15 20 8 11 1017.4 1017.4 0.0
05/06:00pm 23.8 23.8 18.2 71 3.5 E 15 20 8 11 1017.0 1017.0 0.0
05/05:30pm 24.3 23.5 18.0 68 4.0 E 19 28 10 15 1016.8 1016.8 0.0
05/05:00pm 24.9 23.5 17.1 62 4.8 E 20 26 11 14 1016.5 1016.5 0.0
05/04:30pm 25.8 24.7 17.2 59 5.4 ESE 19 22 10 12 1016.3 1016.3 0.0
05/04:00pm 26.2 23.4 15.3 51 6.6 ESE 24 32 13 17 1016.1 1016.1 0.0
05/03:30pm 26.5 23.8 15.5 50 6.7 ESE 24 32 13 17 1016.2 1016.2 0.0
05/03:00pm 26.8 24.8 16.4 53 6.4 ENE 22 28 12 15 1016.2 1016.2 0.0
05/02:30pm 27.2 25.0 15.9 50 6.9 E 22 30 12 16 1016.1 1016.1 0.0
05/02:00pm 27.3 25.1 16.0 50 6.9 ENE 22 32 12 17 1016.3 1016.3 0.0
05/01:30pm 27.3 25.4 15.7 49 7.1 E 20 26 11 14 1016.4 1016.4 0.0
05/01:00pm 27.7 26.2 16.3 49 7.0 E 19 24 10 13 1016.7 1016.7 0.0
05/12:30pm 27.2 26.0 16.2 51 6.8 E 17 22 9 12 1017.2 1017.2 0.0
05/12:00pm 27.4 26.3 16.4 51 6.8 E 17 20 9 11 1017.7 1017.7 0.0
05/11:30am 27.6 27.1 15.9 49 7.2 ESE 13 22 7 12 1018.0 1018.0 0.0
05/11:00am 27.3 24.9 12.5 40 8.6 E 17 24 9 13 1018.5 1018.5 0.0
05/10:30am 27.0 25.6 13.4 43 8.0 SE 13 19 7 10 1019.1 1019.1 0.0
05/10:00am 25.9 24.0 13.1 45 7.5 SE 15 24 8 13 1019.3 1019.3 0.0
05/09:30am 25.4 23.8 12.9 45 7.3 SSE 13 19 7 10 1019.4 1019.4 0.0
05/09:00am 23.8 24.2 16.3 63 4.6 SSW 9 13 5 7 1019.3 1019.3 19.6
05/08:30am 22.5 23.6 17.0 71 3.4 SSW 7 11 4 6 1019.3 1019.3 19.6
05/08:00am 21.0 22.2 17.4 80 2.2 SSW 7 11 4 6 1019.1 1019.1 19.6
05/07:30am 20.1 21.3 17.3 84 1.7 SW 7 11 4 6 1018.7 1018.7 19.6
05/07:00am 19.1 20.2 17.1 88 1.2 SW 7 9 4 5 1018.4 1018.4 19.6
05/06:30am 18.7 19.7 16.9 89 1.1 SSW 7 11 4 6 1018.1 1018.1 19.6
05/06:00am 18.9 19.4 16.5 86 1.4 SSW 9 13 5 7 1017.7 1017.7 19.6
05/05:30am 18.9 19.8 16.7 87 1.3 SSW 7 11 4 6 1017.1 1017.1 19.6
05/05:00am 19.0 20.3 17.1 89 1.2 S 6 9 3 5 1016.8 1016.8 19.6
05/04:30am 19.2 20.6 17.3 89 1.2 SW 6 7 3 4 1016.7 1016.7 19.6
05/04:00am 19.5 20.8 17.6 89 1.2 SSW 7 9 4 5 1016.7 1016.7 19.6
05/03:30am 19.7 21.2 17.7 88 1.2 SSW 6 7 3 4 1016.7 1016.7 19.6
05/03:00am 20.0 21.7 18.0 88 1.2 SSW 6 7 3 4 1016.4 1016.4 19.6
05/02:30am 20.2 21.4 18.3 89 1.2 SSW 9 11 5 6 1016.4 1016.4 19.6
05/02:00am 20.3 22.0 18.4 89 1.2 SSW 7 7 4 4 1016.6 1016.6 19.6
05/01:30am 20.4 22.1 18.5 89 1.2 SSW 7 9 4 5 1016.7 1016.7 19.6
05/01:00am 20.6 22.5 18.5 88 1.3 SSW 6 7 3 4 1016.9 1016.9 19.6
05/12:30am 20.8 22.9 18.9 89 1.2 SSW 6 7 3 4 1017.0 1017.0 19.6
05/12:00am 21.0 22.9 18.9 88 1.3 SSW 7 7 4 4 1017.2 1017.2 19.6
 
Date/Time
EST
Temp
°C
App
Temp
°C
Dew
Point
Rel
Hum
%
Delta-T
°C
Wind Press
QNH
hPa
Press
MSL
hPa
Rain
since 9 am
mm
Dir
 
Spd
km/h
Gust
km/h
Spd
kts
Gust
kts
04/11:30pm 21.3 23.4 19.0 87 1.5 S 6 7 3 4 1017.4 1017.4 19.6
04/11:00pm 21.6 23.6 19.2 86 1.5 SSW 7 9 4 5 1017.6 1017.6 19.6
04/10:30pm 22.1 24.3 19.5 85 1.7 SSW 7 9 4 5 1017.8 1017.8 19.6
04/10:00pm 22.4 24.7 19.8 85 1.7 SSW 7 11 4 6 1017.8 1017.8 19.6
04/09:30pm 22.5 24.7 19.5 83 1.9 SSW 7 7 4 4 1017.8 1017.8 19.6
04/09:00pm 23.0 26.1 19.6 81 2.2 SE 2 6 1 3 1017.7 1017.7 19.6
04/08:30pm 23.6 25.7 19.3 77 2.7 ESE 7 9 4 5 1017.6 1017.6 19.6
04/08:00pm 23.9 25.5 19.2 75 3.0 ESE 9 11 5 6 1017.2 1017.2 19.6
04/07:30pm 23.8 25.9 19.3 76 2.9 E 7 11 4 6 1016.9 1016.9 19.6
04/07:00pm 24.1 25.5 19.6 76 2.9 ESE 11 15 6 8 1016.5 1016.5 19.6
04/06:30pm 24.2 25.4 19.9 77 2.8 E 13 19 7 10 1016.1 1016.1 19.6
04/06:00pm 24.3 25.2 20.0 77 2.8 ENE 15 20 8 11 1015.5 1015.5 19.6
04/05:30pm 24.4 25.8 20.3 78 2.7 ENE 13 17 7 9 1015.1 1015.1 19.6
04/05:00pm 24.6 25.5 20.1 76 2.9 ENE 15 17 8 9 1014.7 1014.7 19.6
04/04:30pm 25.4 27.1 20.2 73 3.4 NE 11 15 6 8 1014.2 1014.2 19.6
04/04:00pm 26.0 27.8 20.3 71 3.7 NE 11 15 6 8 1013.9 1013.9 19.6
04/03:30pm 26.2 27.7 19.8 68 4.2 NE 11 13 6 7 1013.7 1013.7 19.6
04/03:00pm 26.3 28.4 20.2 69 4.0 NNE 9 13 5 7 1013.6 1013.6 19.6
04/02:30pm 26.7 29.3 20.5 69 4.1 NNE 7 9 4 5 1013.5 1013.5 19.6
04/02:00pm 26.1 28.2 20.2 70 3.8 N 9 11 5 6 1013.7 1013.7 19.6
04/01:30pm 26.3 28.4 19.4 66 4.5 NNE 7 13 4 7 1013.9 1013.9 19.6
04/01:00pm 26.1 28.3 19.7 68 4.1 E 7 11 4 6 1014.1 1014.1 19.6
04/12:30pm 25.3 28.7 20.1 73 3.4 SW 2 9 1 5 1014.7 1014.7 19.6
04/12:00pm 24.2 26.0 19.5 75 3.0 SE 9 13 5 7 1015.2 1015.2 19.6
04/11:30am 23.6 25.7 20.1 81 2.3 S 9 13 5 7 1015.8 1015.8 19.6
04/11:00am 22.8 24.3 20.5 87 1.5 ESE 13 15 7 8 1016.3 1016.3 19.6
04/10:30am 22.1 24.2 20.2 89 1.2 ESE 9 13 5 7 1016.9 1016.9 19.6
04/10:29am 22.2 24.4 20.3 89 1.2 ESE 9 13 5 7 1016.9 1016.9 19.6
04/10:27am 22.1 24.6 20.2 89 1.2 SE 7 11 4 6 1017.0 1017.0 19.6
04/10:00am 21.6 23.1 19.7 89 1.2 SSW 11 17 6 9 1017.0 1017.0 18.0
04/09:40am 22.1 23.3 20.0 88 1.3 SW 13 20 7 11 1017.3 1017.3 11.4
04/09:30am 23.1 25.0 20.6 86 1.6 W 11 20 6 11 1017.3 1017.3 4.6
04/09:24am 24.1 26.2 21.0 83 2.0 WSW 11 17 6 9 1017.1 1017.1 1.4
04/09:00am 24.7 26.5 20.4 77 2.8 SSW 11 15 6 8 1016.4 1016.4 0.0
04/08:30am 24.8 27.0 20.5 77 2.8 SW 9 15 5 8 1016.1 1016.1 0.0
04/08:00am 23.8 26.3 20.3 81 2.3 SSW 7 13 4 7 1015.8 1015.8 0.0
04/07:30am 23.5 26.5 20.8 85 1.8 SW 6 9 3 5 1015.5 1015.5 0.0
04/07:00am 23.3 27.4 20.8 86 1.6 CALM 0 0 0 0 1015.0 1015.0 0.0
04/06:30am 23.3 27.0 20.8 86 1.6 WSW 2 6 1 3 1014.5 1014.5 0.0
04/06:00am 23.2 26.0 20.9 87 1.5 SW 7 7 4 4 1014.3 1014.3 0.0
04/05:30am 23.4 26.5 21.1 87 1.5 W 6 9 3 5 1013.8 1013.8 0.0
04/05:00am 23.5 27.3 21.0 86 1.6 WSW 2 7 1 4 1013.5 1013.5 0.0
04/04:30am 23.7 26.8 21.0 85 1.8 WSW 6 9 3 5 1013.4 1013.4 0.0
04/04:00am 23.7 26.6 20.6 83 2.0 SSW 6 7 3 4 1013.3 1013.3 0.0
04/03:30am 24.0 27.8 20.9 83 2.0 WSW 2 7 1 4 1013.0 1013.0 0.0
04/03:00am 23.9 26.9 20.8 83 2.0 SSW 6 13 3 7 1012.8 1012.8 0.0
04/02:30am 24.0 28.2 20.9 83 2.0 CALM 0 6 0 3 1012.9 1012.9 0.0
04/02:00am 24.0 27.1 21.1 84 1.9 SSW 6 7 3 4 1013.2 1013.2 0.0
04/01:30am 24.0 27.0 20.9 83 2.0 SSW 6 7 3 4 1013.2 1013.2 0.0
04/01:00am 24.3 27.4 21.0 82 2.2 SW 6 7 3 4 1013.2 1013.2 0.0
04/12:30am 24.9 28.2 21.8 83 2.1 NW 7 9 4 5 1013.2 1013.2 0.0
04/12:00am 25.1 28.0 21.8 82 2.2 NW 9 13 5 7 1013.3 1013.3 0.0
 
Date/Time
EST
Temp
°C
App
Temp
°C
Dew
Point
Rel
Hum
%
Delta-T
°C
Wind Press
QNH
hPa
Press
MSL
hPa
Rain
since 9 am
mm
Dir
 
Spd
km/h
Gust
km/h
Spd
kts
Gust
kts
03/11:30pm 25.1 27.5 21.6 81 2.3 N 11 13 6 7 1013.5 1013.5 0.0
03/11:00pm 25.2 27.5 21.3 79 2.6 NNW 11 13 6 7 1013.8 1013.8 0.0
03/10:30pm 25.1 27.8 21.4 80 2.4 NW 9 11 5 6 1013.9 1013.9 0.0
03/10:00pm 25.1 27.7 21.2 79 2.6 NW 9 11 5 6 1014.0 1014.0 0.0
03/09:30pm 25.2 27.5 21.3 79 2.6 NNW 11 15 6 8 1014.1 1014.1 0.0
03/09:00pm 25.4 27.7 21.3 78 2.7 NNW 11 17 6 9 1014.1 1014.1 0.0
03/08:30pm 25.6 26.6 21.1 76 3.0 NNW 17 22 9 12 1014.2 1014.2 0.0
03/08:00pm 25.7 27.0 20.9 75 3.2 NNW 15 19 8 10 1014.0 1014.0 0.0
03/07:30pm 26.2 27.8 20.8 72 3.6 NNW 13 19 7 10 1013.9 1013.9 0.0
03/07:00pm 26.4 28.2 20.3 69 4.0 N 11 17 6 9 1013.3 1013.3 0.0
03/06:30pm 26.9 28.5 20.0 66 4.5 NNW 11 15 6 8 1012.8 1012.8 0.0
03/06:00pm 27.1 28.6 19.7 64 4.8 NNW 11 15 6 8 1012.4 1012.4 0.0
03/05:30pm 27.7 29.6 19.8 62 5.1 N 9 13 5 7 1012.0 1012.0 0.0
03/05:00pm 28.0 29.8 19.5 60 5.5 N 9 13 5 7 1011.6 1011.6 0.0
03/04:30pm 28.6 29.9 19.2 56 6.1 N 11 17 6 9 1011.5 1011.5 0.0
03/04:00pm 28.1 29.7 19.9 61 5.4 NE 11 15 6 8 1011.2 1011.2 0.0

Other Formats:

Comma delimited format used in spreadsheet applications
http://www.bom.gov.au/fwo/IDQ60801/IDQ60801.94381.axf

JavaScript Object Notation format (JSON) in row-major order
http://www.bom.gov.au/fwo/IDQ60801/IDQ60801.94381.json